Terminal Aerodrome Forecast
Issued by NWS

Home | Current Version | Previous Version | Text Only | Print | Product List | Glossary On
Versions: 1 2 3 4 5 6 7 8 9 10 11 12 13 14 15
000
FTUS44 KSJT 191700
TAFSOA
TAF
KSOA 191732Z 1918/2018 18013G18KT P6SM SCT020 BKN250
     FM200000 15009KT P6SM BKN250
     FM201200 16010KT P6SM BKN020=

USA.gov is the U.S. government's official web portal to all federal, state and local government web resources and services.